createdAt,value
2018-06-29T00:01:53.056Z,20.30
2018-06-29T00:04:21.240Z,20.30
2018-06-29T00:06:49.497Z,20.20
2018-06-29T00:09:17.749Z,20.20
2018-06-29T00:11:46.809Z,20.20
2018-06-29T00:14:14.999Z,20.20
2018-06-29T00:16:43.994Z,20.20
2018-06-29T00:19:12.964Z,20.20
2018-06-29T00:21:41.201Z,20.20
2018-06-29T00:24:09.457Z,20.20
2018-06-29T00:26:38.484Z,20.20
2018-06-29T00:29:06.727Z,20.10
2018-06-29T00:31:36.303Z,20.10
2018-06-29T00:34:04.505Z,20.10
2018-06-29T00:36:33.487Z,20.10
2018-06-29T00:39:02.505Z,20.10
2018-06-29T00:41:31.516Z,20.10
2018-06-29T00:43:59.711Z,20.10
2018-06-29T00:46:28.741Z,20.10
2018-06-29T00:48:56.927Z,20.10
2018-06-29T00:51:25.974Z,20.10
2018-06-29T00:53:54.223Z,20.10
2018-06-29T00:56:22.483Z,20.10
2018-06-29T00:58:51.445Z,20.10
2018-06-29T01:01:19.711Z,20.10
2018-06-29T01:03:47.947Z,20.10
2018-06-29T01:06:16.170Z,20.10
2018-06-29T01:08:45.884Z,20.00
2018-06-29T01:11:14.105Z,20.00
2018-06-29T01:13:42.325Z,20.00
2018-06-29T01:16:10.552Z,20.00
2018-06-29T01:18:39.547Z,19.90
2018-06-29T01:21:07.779Z,19.90
2018-06-29T01:23:35.987Z,19.90
2018-06-29T01:26:05.076Z,19.90
2018-06-29T01:28:34.143Z,19.80
2018-06-29T01:31:03.098Z,19.80
2018-06-29T01:33:31.312Z,19.80
2018-06-29T01:35:59.514Z,19.80
2018-06-29T01:38:28.504Z,19.80
2018-06-29T01:40:57.476Z,19.80
2018-06-29T01:43:25.706Z,19.80
2018-06-29T01:45:53.897Z,19.80
2018-06-29T01:48:22.116Z,19.80
2018-06-29T01:50:50.365Z,19.70
2018-06-29T01:53:18.572Z,19.70
2018-06-29T01:55:46.822Z,19.60
2018-06-29T01:58:15.048Z,19.50
2018-06-29T02:00:44.008Z,19.50
2018-06-29T02:03:12.286Z,19.40
2018-06-29T02:05:40.488Z,19.50
2018-06-29T02:08:09.569Z,19.40
2018-06-29T02:10:37.770Z,19.40
2018-06-29T02:13:05.993Z,19.30
2018-06-29T02:15:34.197Z,19.30
2018-06-29T02:18:03.198Z,19.30
2018-06-29T02:20:32.167Z,19.20
2018-06-29T02:23:00.385Z,19.20
2018-06-29T02:25:28.649Z,19.20
2018-06-29T02:27:56.901Z,19.20
2018-06-29T02:30:25.114Z,19.20
2018-06-29T02:32:55.092Z,19.20
2018-06-29T02:35:23.296Z,19.20
2018-06-29T02:37:52.300Z,19.20
2018-06-29T02:40:21.385Z,19.20
2018-06-29T02:42:50.367Z,19.20
2018-06-29T02:45:18.615Z,19.10
2018-06-29T02:47:46.873Z,19.20
2018-06-29T02:50:15.081Z,19.20
2018-06-29T02:52:43.344Z,19.10
2018-06-29T02:55:11.589Z,19.10
2018-06-29T02:57:39.845Z,19.10
2018-06-29T03:00:08.856Z,18.90
2018-06-29T03:02:37.072Z,18.90
2018-06-29T03:05:05.319Z,18.90
2018-06-29T03:07:33.575Z,18.90
2018-06-29T03:10:01.819Z,18.90
2018-06-29T03:12:30.084Z,18.90
2018-06-29T03:14:58.323Z,18.80
2018-06-29T03:17:26.531Z,18.80
2018-06-29T03:19:54.773Z,18.80
2018-06-29T03:22:22.983Z,18.80
2018-06-29T03:24:51.239Z,18.80
2018-06-29T03:27:19.517Z,18.70
2018-06-29T03:29:47.717Z,18.70
2018-06-29T03:32:15.940Z,18.70
2018-06-29T03:34:44.203Z,18.60
2018-06-29T03:37:12.423Z,18.60
2018-06-29T03:39:40.630Z,18.60
2018-06-29T03:42:08.865Z,18.60
2018-06-29T03:44:37.086Z,18.60
2018-06-29T03:47:05.344Z,18.60
2018-06-29T03:49:34.346Z,18.60
2018-06-29T03:52:02.563Z,18.50
2018-06-29T03:54:31.528Z,18.60
2018-06-29T03:56:59.786Z,18.60
2018-06-29T03:59:27.984Z,18.60
2018-06-29T04:01:57.106Z,18.60
2018-06-29T04:04:26.064Z,18.60
2018-06-29T04:06:54.324Z,18.60
2018-06-29T04:09:22.528Z,18.60
2018-06-29T04:11:51.513Z,18.60
2018-06-29T04:14:19.736Z,18.60
2018-06-29T04:16:47.990Z,18.60
2018-06-29T04:19:17.004Z,18.60
2018-06-29T04:21:45.223Z,18.60
2018-06-29T04:24:13.432Z,18.70
2018-06-29T04:26:42.470Z,18.70
2018-06-29T04:29:10.706Z,18.70
2018-06-29T04:31:39.694Z,18.80
2018-06-29T04:34:08.029Z,18.70
2018-06-29T04:36:36.240Z,18.80
2018-06-29T04:39:04.484Z,18.80
2018-06-29T04:41:32.744Z,18.90
2018-06-29T04:44:00.989Z,18.90
2018-06-29T04:46:30.011Z,19.00
2018-06-29T04:48:58.212Z,18.90
2018-06-29T04:51:26.436Z,19.00
2018-06-29T04:53:54.647Z,19.10
2018-06-29T04:56:22.867Z,19.10
2018-06-29T04:58:51.847Z,19.20
2018-06-29T05:01:20.074Z,19.10
2018-06-29T05:03:48.299Z,19.20
2018-06-29T05:06:16.506Z,19.20
2018-06-29T05:08:45.482Z,19.30
2018-06-29T05:11:14.474Z,19.20
2018-06-29T05:13:42.739Z,19.20
2018-06-29T05:16:10.943Z,19.30
2018-06-29T05:18:39.961Z,19.30
2018-06-29T05:21:08.161Z,19.20
2018-06-29T05:23:36.411Z,19.30
2018-06-29T05:26:04.609Z,19.30
2018-06-29T05:28:32.944Z,19.30
2018-06-29T05:31:01.084Z,19.30
2018-06-29T05:33:29.315Z,19.40
2018-06-29T05:35:57.613Z,19.40
2018-06-29T05:38:26.599Z,19.40
2018-06-29T05:40:54.816Z,19.40
2018-06-29T05:43:23.026Z,19.40
2018-06-29T05:45:51.287Z,19.50
2018-06-29T05:48:19.496Z,19.50
2018-06-29T05:50:47.714Z,19.50
2018-06-29T05:53:15.973Z,19.50
2018-06-29T05:55:44.214Z,19.50
2018-06-29T05:58:12.458Z,19.60
2018-06-29T06:00:40.667Z,19.60
2018-06-29T06:03:08.931Z,19.70
2018-06-29T06:05:37.905Z,19.70
2018-06-29T06:08:06.893Z,19.80
2018-06-29T06:10:35.137Z,19.70
2018-06-29T06:13:04.164Z,19.80
2018-06-29T06:15:32.369Z,19.80
2018-06-29T06:18:00.588Z,19.90
2018-06-29T06:20:28.838Z,19.90
2018-06-29T06:22:57.044Z,19.90
2018-06-29T06:25:25.251Z,20.00
2018-06-29T06:27:54.301Z,20.10
2018-06-29T06:30:22.537Z,20.00
2018-06-29T06:32:51.519Z,20.10
2018-06-29T06:35:20.531Z,20.10
2018-06-29T06:37:49.544Z,20.20
2018-06-29T06:40:17.806Z,20.20
2018-06-29T06:42:46.772Z,20.30
2018-06-29T06:45:15.021Z,20.20
2018-06-29T06:47:43.272Z,20.30
2018-06-29T06:50:11.508Z,20.30
2018-06-29T06:52:39.720Z,20.40
2018-06-29T06:55:07.974Z,20.40
2018-06-29T06:57:36.991Z,20.50
2018-06-29T07:00:05.247Z,20.50
2018-06-29T07:02:33.521Z,20.50
2018-06-29T07:05:02.496Z,20.60
2018-06-29T07:07:30.715Z,20.60
2018-06-29T07:09:58.980Z,20.70
2018-06-29T07:12:27.999Z,20.80
2018-06-29T07:14:56.943Z,20.80
2018-06-29T07:17:25.945Z,20.90
2018-06-29T07:19:54.913Z,20.90
2018-06-29T07:22:23.133Z,20.90
2018-06-29T07:24:51.355Z,21.00
2018-06-29T07:27:19.623Z,21.10
2018-06-29T07:29:47.862Z,21.10
2018-06-29T07:32:16.899Z,21.20
2018-06-29T07:34:45.105Z,21.20
2018-06-29T07:37:14.115Z,21.30
2018-06-29T07:39:43.141Z,21.40
2018-06-29T07:42:11.405Z,21.40
2018-06-29T07:44:39.642Z,21.50
2018-06-29T07:47:07.853Z,21.50
2018-06-29T07:49:36.117Z,21.50
2018-06-29T07:52:05.135Z,21.60
2018-06-29T07:54:33.332Z,21.50
2018-06-29T07:57:01.563Z,21.60
2018-06-29T07:59:29.819Z,21.70
2018-06-29T08:01:58.036Z,21.80
2018-06-29T08:04:26.271Z,21.80
2018-06-29T08:06:54.518Z,21.90
2018-06-29T08:09:22.784Z,21.90
2018-06-29T08:11:50.990Z,22.00
2018-06-29T08:14:19.262Z,22.10
2018-06-29T08:16:47.556Z,22.10
2018-06-29T08:19:15.765Z,22.10
2018-06-29T08:21:44.031Z,22.20
2018-06-29T08:24:13.021Z,22.30
2018-06-29T08:26:41.980Z,22.30
2018-06-29T08:29:10.220Z,22.30
2018-06-29T08:31:38.432Z,22.30
2018-06-29T08:34:06.708Z,22.40
2018-06-29T08:36:34.955Z,22.40
2018-06-29T08:39:03.176Z,22.50
2018-06-29T08:41:31.377Z,22.50
2018-06-29T08:43:59.636Z,22.60
2018-06-29T08:46:27.882Z,22.70
2018-06-29T08:48:56.135Z,22.70
2018-06-29T08:51:24.442Z,22.80
2018-06-29T08:53:52.652Z,22.90
2018-06-29T08:56:21.668Z,23.10
2018-06-29T08:58:50.007Z,23.00
2018-06-29T09:01:18.195Z,23.20
2018-06-29T09:03:46.415Z,23.30
2018-06-29T09:06:14.639Z,23.40
2018-06-29T09:08:42.891Z,23.50
2018-06-29T09:11:11.105Z,23.70
2018-06-29T09:13:40.088Z,23.90
2018-06-29T09:16:09.095Z,24.10
2018-06-29T09:18:38.088Z,24.10
2018-06-29T09:21:07.115Z,24.20
2018-06-29T09:23:35.341Z,24.10
2018-06-29T09:26:03.599Z,24.10
2018-06-29T09:28:31.867Z,24.10
2018-06-29T09:31:00.098Z,24.20
2018-06-29T09:33:29.062Z,24.40
2018-06-29T09:35:57.316Z,24.30
2018-06-29T09:38:25.544Z,24.50
2018-06-29T09:40:53.742Z,24.60
2018-06-29T09:43:21.979Z,24.60
2018-06-29T09:45:50.957Z,24.80
2018-06-29T09:48:19.224Z,24.70
2018-06-29T09:50:47.461Z,24.80
2018-06-29T09:53:15.669Z,24.90
2018-06-29T09:55:43.926Z,24.80
2018-06-29T09:58:12.145Z,24.90
2018-06-29T10:00:41.253Z,25.00
2018-06-29T10:03:09.381Z,25.00
2018-06-29T10:05:37.601Z,25.00
2018-06-29T10:08:06.592Z,25.20
2018-06-29T10:10:34.840Z,25.20
2018-06-29T10:13:03.051Z,25.30
2018-06-29T10:15:32.075Z,25.50
2018-06-29T10:18:00.327Z,25.40
2018-06-29T10:20:29.351Z,25.70
2018-06-29T10:22:57.609Z,25.60
2018-06-29T10:25:25.910Z,25.70
2018-06-29T10:27:54.940Z,25.90
2018-06-29T10:30:23.138Z,25.90
2018-06-29T10:32:52.174Z,26.10
2018-06-29T10:35:20.423Z,26.10
2018-06-29T10:37:49.439Z,26.40
2018-06-29T10:40:17.667Z,26.40
2018-06-29T10:42:45.925Z,26.50
2018-06-29T10:45:14.181Z,26.70
2018-06-29T10:47:42.403Z,26.90
2018-06-29T10:50:11.380Z,27.20
2018-06-29T10:52:39.654Z,27.10
2018-06-29T10:55:07.863Z,27.40
2018-06-29T10:57:36.096Z,27.50
2018-06-29T11:00:04.361Z,27.70
2018-06-29T11:02:32.589Z,27.90
2018-06-29T11:05:01.604Z,28.20
2018-06-29T11:07:29.866Z,28.20
2018-06-29T11:09:58.828Z,28.60
2018-06-29T11:12:27.099Z,28.60
2018-06-29T11:14:55.331Z,28.90
2018-06-29T11:17:23.599Z,29.10
2018-06-29T11:19:52.563Z,29.40
2018-06-29T11:22:21.591Z,29.50
2018-06-29T11:24:49.808Z,29.40
2018-06-29T11:27:18.037Z,29.60
2018-06-29T11:29:46.303Z,29.80
2018-06-29T11:32:15.317Z,30.00
2018-06-29T11:34:43.543Z,30.00
2018-06-29T11:37:11.793Z,29.90
2018-06-29T11:39:40.019Z,29.80
2018-06-29T11:42:08.993Z,29.80
2018-06-29T11:44:37.219Z,29.80
2018-06-29T11:47:05.435Z,29.90
2018-06-29T11:49:33.711Z,30.00
2018-06-29T11:52:02.011Z,30.00
2018-06-29T11:54:30.268Z,29.90
2018-06-29T11:56:58.490Z,29.80
2018-06-29T11:59:27.514Z,29.60
2018-06-29T12:01:55.770Z,29.50
2018-06-29T12:04:24.022Z,29.50
2018-06-29T12:06:53.101Z,29.40
2018-06-29T12:09:21.222Z,29.30
2018-06-29T12:11:49.470Z,29.30
2018-06-29T12:14:18.504Z,29.30
2018-06-29T12:16:46.708Z,29.30
2018-06-29T12:19:14.970Z,29.30
2018-06-29T12:21:43.244Z,29.40
2018-06-29T12:24:11.509Z,29.40
2018-06-29T12:26:39.733Z,29.40
2018-06-29T12:29:07.998Z,29.40
2018-06-29T12:31:36.249Z,29.40
2018-06-29T12:34:04.515Z,29.40
2018-06-29T12:36:32.889Z,29.50
2018-06-29T12:39:01.044Z,29.50
2018-06-29T12:41:29.312Z,29.60
2018-06-29T12:43:58.295Z,29.80
2018-06-29T12:46:27.312Z,29.80
2018-06-29T12:48:56.294Z,30.00
2018-06-29T12:51:25.280Z,30.10
2018-06-29T12:53:53.509Z,30.00
2018-06-29T12:56:21.755Z,30.10
2018-06-29T12:58:50.034Z,30.10
2018-06-29T13:01:18.269Z,30.30
2018-06-29T13:03:46.532Z,30.30
2018-06-29T13:06:14.698Z,30.40
2018-06-29T13:08:42.965Z,30.40
2018-06-29T13:11:11.193Z,30.40
2018-06-29T13:13:40.249Z,30.60
2018-06-29T13:16:08.501Z,30.60
2018-06-29T13:18:36.775Z,30.70
2018-06-29T13:21:05.020Z,30.70
2018-06-29T13:23:34.015Z,30.60
2018-06-29T13:26:03.033Z,30.60
2018-06-29T13:28:31.362Z,30.60
2018-06-29T13:31:00.269Z,30.50
2018-06-29T13:33:29.316Z,30.50
2018-06-29T13:35:57.521Z,30.40
2018-06-29T13:38:25.777Z,30.40
2018-06-29T13:40:54.025Z,30.30
2018-06-29T13:43:22.253Z,30.30
2018-06-29T13:45:50.474Z,30.30
2018-06-29T13:48:18.697Z,30.30
2018-06-29T13:50:46.962Z,30.30
2018-06-29T13:53:15.224Z,30.30
2018-06-29T13:55:43.479Z,30.30
2018-06-29T13:58:11.688Z,30.40
2018-06-29T14:00:39.912Z,30.40
2018-06-29T14:03:08.904Z,30.40
2018-06-29T14:05:37.889Z,30.50
2018-06-29T14:08:06.940Z,30.60
2018-06-29T14:10:35.153Z,30.60
2018-06-29T14:13:03.423Z,30.70
2018-06-29T14:15:31.619Z,30.80
2018-06-29T14:18:00.679Z,31.00
2018-06-29T14:20:28.865Z,30.90
2018-06-29T14:22:57.090Z,31.10
2018-06-29T14:25:25.316Z,31.30
2018-06-29T14:27:53.546Z,31.40
2018-06-29T14:30:21.764Z,31.40
2018-06-29T14:32:49.995Z,31.50
2018-06-29T14:35:18.256Z,31.50
2018-06-29T14:37:47.248Z,31.60
2018-06-29T14:40:16.264Z,31.80
2018-06-29T14:42:44.521Z,31.80
2018-06-29T14:45:13.538Z,32.30
2018-06-29T14:47:41.750Z,32.30
2018-06-29T14:50:10.013Z,32.60
2018-06-29T14:52:38.227Z,32.80
2018-06-29T14:55:06.453Z,32.70
2018-06-29T14:57:34.663Z,32.80
2018-06-29T15:00:02.907Z,32.70
2018-06-29T15:02:31.174Z,32.60
2018-06-29T15:04:59.384Z,32.60
2018-06-29T15:07:27.669Z,32.70
2018-06-29T15:09:55.894Z,32.90
2018-06-29T15:12:24.155Z,33.10
2018-06-29T15:14:52.376Z,33.30
2018-06-29T15:17:20.584Z,33.50
2018-06-29T15:19:48.837Z,33.70
2018-06-29T15:22:17.123Z,33.90
2018-06-29T15:24:45.389Z,34.20
2018-06-29T15:27:14.405Z,34.40
2018-06-29T15:29:42.670Z,34.40
2018-06-29T15:32:10.923Z,34.30
2018-06-29T15:34:39.148Z,34.20
2018-06-29T15:37:08.183Z,34.00
2018-06-29T15:39:36.396Z,34.00
2018-06-29T15:42:04.631Z,33.90
2018-06-29T15:44:32.924Z,33.70
2018-06-29T15:47:01.855Z,33.30
2018-06-29T15:49:30.081Z,33.30
2018-06-29T15:51:58.306Z,33.20
2018-06-29T15:54:26.527Z,33.20
2018-06-29T15:56:54.785Z,33.20
2018-06-29T15:59:23.772Z,33.40
2018-06-29T16:01:52.803Z,33.50
2018-06-29T16:04:21.012Z,33.50
2018-06-29T16:06:49.296Z,33.70
2018-06-29T16:09:17.507Z,33.80
2018-06-29T16:11:46.534Z,34.10
2018-06-29T16:14:14.800Z,34.10
2018-06-29T16:16:43.012Z,34.20
2018-06-29T16:19:11.294Z,34.30
2018-06-29T16:21:39.528Z,34.50
2018-06-29T16:24:07.694Z,34.70
2018-06-29T16:26:35.953Z,34.80
2018-06-29T16:29:04.953Z,35.10
2018-06-29T16:31:33.951Z,35.20
2018-06-29T16:34:02.183Z,35.20
2018-06-29T16:36:30.438Z,35.30
2018-06-29T16:38:58.671Z,35.40
2018-06-29T16:41:27.683Z,35.40
2018-06-29T16:43:55.887Z,35.40
2018-06-29T16:46:24.118Z,35.50
2018-06-29T16:48:53.138Z,35.70
2018-06-29T16:51:22.147Z,35.80
2018-06-29T16:53:50.419Z,35.70
2018-06-29T16:56:18.617Z,35.80
2018-06-29T16:58:47.639Z,35.60
2018-06-29T17:01:16.655Z,35.60
2018-06-29T17:03:45.656Z,35.60
2018-06-29T17:06:13.929Z,35.60
2018-06-29T17:08:42.960Z,35.70
2018-06-29T17:11:11.201Z,35.70
2018-06-29T17:13:40.184Z,35.60
2018-06-29T17:16:09.222Z,35.50
2018-06-29T17:18:37.528Z,35.40
2018-06-29T17:21:06.484Z,35.20
2018-06-29T17:23:34.737Z,35.20
2018-06-29T17:26:02.952Z,35.10
2018-06-29T17:28:31.936Z,34.70
2018-06-29T17:31:00.186Z,34.60
2018-06-29T17:33:32.045Z,34.30
2018-06-29T17:35:57.486Z,33.90
2018-06-29T17:38:25.702Z,33.90
2018-06-29T17:40:53.992Z,33.80
2018-06-29T17:43:23.014Z,33.40
2018-06-29T17:45:51.220Z,33.30
2018-06-29T17:48:19.487Z,33.20
2018-06-29T17:50:47.696Z,33.10
2018-06-29T17:53:15.910Z,33.00
2018-06-29T17:55:44.184Z,32.90
2018-06-29T17:58:13.174Z,32.70
2018-06-29T18:00:42.198Z,32.50
2018-06-29T18:03:10.433Z,32.50
2018-06-29T18:05:39.517Z,32.40
2018-06-29T18:08:07.747Z,32.40
2018-06-29T18:10:35.959Z,32.40
2018-06-29T18:13:04.255Z,32.30
2018-06-29T18:15:32.443Z,32.30
2018-06-29T18:18:00.761Z,32.30
2018-06-29T18:20:29.758Z,32.30
2018-06-29T18:22:57.996Z,32.30
2018-06-29T18:25:26.983Z,32.20
2018-06-29T18:27:55.207Z,32.20
2018-06-29T18:30:23.481Z,32.10
2018-06-29T18:32:51.724Z,32.00
2018-06-29T18:35:20.710Z,31.80
2018-06-29T18:37:49.700Z,31.70
2018-06-29T18:40:18.734Z,31.60
2018-06-29T18:42:46.980Z,31.60
2018-06-29T18:45:15.206Z,31.50
2018-06-29T18:47:43.421Z,31.40
2018-06-29T18:50:12.456Z,31.10
2018-06-29T18:52:40.673Z,31.10
2018-06-29T18:55:08.950Z,30.90
2018-06-29T18:57:37.199Z,30.80
2018-06-29T19:00:05.450Z,30.60
2018-06-29T19:02:33.708Z,30.40
2018-06-29T19:05:02.757Z,30.10
2018-06-29T19:07:30.957Z,30.10
2018-06-29T19:09:59.226Z,30.00
2018-06-29T19:12:27.477Z,29.80
2018-06-29T19:14:55.752Z,29.70
2018-06-29T19:17:24.014Z,29.50
2018-06-29T19:19:52.226Z,29.30
2018-06-29T19:22:20.488Z,29.20
2018-06-29T19:24:48.741Z,29.00
2018-06-29T19:27:16.963Z,28.80
2018-06-29T19:29:45.173Z,28.70
2018-06-29T19:32:13.437Z,28.60
2018-06-29T19:34:42.475Z,28.20
2018-06-29T19:37:10.731Z,28.20
2018-06-29T19:39:39.054Z,28.10
2018-06-29T19:42:07.275Z,27.90
2018-06-29T19:44:36.322Z,27.50
2018-06-29T19:47:04.523Z,27.50
2018-06-29T19:49:33.517Z,27.10
2018-06-29T19:52:01.793Z,27.10
2018-06-29T19:54:30.068Z,27.00
2018-06-29T19:56:58.278Z,26.80
2018-06-29T19:59:26.583Z,26.70
2018-06-29T20:01:54.844Z,26.50
2018-06-29T20:04:23.106Z,26.30
2018-06-29T20:06:51.331Z,26.10
2018-06-29T20:09:19.556Z,26.00
2018-06-29T20:11:47.813Z,25.90
2018-06-29T20:14:16.845Z,25.70
2018-06-29T20:16:45.115Z,25.60
2018-06-29T20:19:13.389Z,25.60
2018-06-29T20:21:41.611Z,25.50
2018-06-29T20:24:09.880Z,25.30
2018-06-29T20:26:38.088Z,25.20
2018-06-29T20:29:07.090Z,24.90
2018-06-29T20:31:35.585Z,24.90
2018-06-29T20:34:04.612Z,24.70
2018-06-29T20:36:32.823Z,24.70
2018-06-29T20:39:01.071Z,24.60
2018-06-29T20:41:29.279Z,24.50
2018-06-29T20:43:58.278Z,24.30
2018-06-29T20:46:27.270Z,24.20
2018-06-29T20:48:55.524Z,24.20
2018-06-29T20:51:23.741Z,24.10
2018-06-29T20:53:51.970Z,24.10
2018-06-29T20:56:20.177Z,23.90
2018-06-29T20:58:49.173Z,23.70
2018-06-29T21:01:18.164Z,23.60
2018-06-29T21:03:46.408Z,23.60
2018-06-29T21:06:14.668Z,23.50
2018-06-29T21:08:42.930Z,23.50
2018-06-29T21:11:11.197Z,23.50
2018-06-29T21:13:39.462Z,23.40
2018-06-29T21:16:08.493Z,23.30
2018-06-29T21:18:36.785Z,23.20
2018-06-29T21:21:05.017Z,23.20
2018-06-29T21:23:33.992Z,23.00
2018-06-29T21:26:03.028Z,23.00
2018-06-29T21:28:31.278Z,22.90
2018-06-29T21:31:00.316Z,22.90
2018-06-29T21:33:28.501Z,22.90
2018-06-29T21:35:56.762Z,22.80
2018-06-29T21:38:25.014Z,22.70
2018-06-29T21:40:54.054Z,22.60
2018-06-29T21:43:22.276Z,22.60
2018-06-29T21:45:51.287Z,22.40
2018-06-29T21:48:19.516Z,22.40
2018-06-29T21:50:47.739Z,22.40
2018-06-29T21:53:15.959Z,22.30
2018-06-29T21:55:44.179Z,22.30
2018-06-29T21:58:12.397Z,22.30
2018-06-29T22:00:40.666Z,22.20
2018-06-29T22:03:08.920Z,22.20
2018-06-29T22:05:37.137Z,22.10
2018-06-29T22:08:05.347Z,22.00
2018-06-29T22:10:33.740Z,22.00
2018-06-29T22:13:02.591Z,21.90
2018-06-29T22:15:30.872Z,21.80
2018-06-29T22:17:59.067Z,21.80
2018-06-29T22:20:28.083Z,21.70
2018-06-29T22:22:56.337Z,21.70
2018-06-29T22:25:24.548Z,21.60
2018-06-29T22:27:52.820Z,21.60
2018-06-29T22:30:21.049Z,21.50
2018-06-29T22:32:49.281Z,21.50
2018-06-29T22:35:17.553Z,21.40
2018-06-29T22:37:45.799Z,21.30
2018-06-29T22:40:14.815Z,21.20
2018-06-29T22:42:43.056Z,21.20
2018-06-29T22:45:11.283Z,21.20
2018-06-29T22:47:39.546Z,21.10
2018-06-29T22:50:07.759Z,21.10
2018-06-29T22:52:36.022Z,21.00
2018-06-29T22:55:04.266Z,20.90
2018-06-29T22:57:32.532Z,20.80
2018-06-29T23:00:01.509Z,20.60
2018-06-29T23:02:29.715Z,20.60
2018-06-29T23:04:57.993Z,20.50
2018-06-29T23:07:26.975Z,20.40
2018-06-29T23:09:55.951Z,20.30
2018-06-29T23:12:25.024Z,20.20
2018-06-29T23:14:53.284Z,20.20
2018-06-29T23:17:21.464Z,20.20
2018-06-29T23:19:49.725Z,20.10
2018-06-29T23:22:17.940Z,20.10
2018-06-29T23:24:46.169Z,20.00
2018-06-29T23:27:14.952Z,19.90
2018-06-29T23:29:43.202Z,19.80
2018-06-29T23:32:12.183Z,19.70
2018-06-29T23:34:41.179Z,19.60
2018-06-29T23:37:09.435Z,19.60
2018-06-29T23:39:37.646Z,19.50
2018-06-29T23:42:06.615Z,19.40
2018-06-29T23:44:34.890Z,19.30
2018-06-29T23:47:03.097Z,19.30
2018-06-29T23:49:31.367Z,19.30
2018-06-29T23:52:00.375Z,19.20
2018-06-29T23:54:29.387Z,19.20
2018-06-29T23:56:57.636Z,19.20
2018-06-29T23:59:26.606Z,19.10
